createdAt,value
2023-04-07T00:00:16.477Z,87.71
2023-04-07T00:01:20.632Z,87.81
2023-04-07T00:02:24.946Z,87.86
2023-04-07T00:03:29.277Z,87.88
2023-04-07T00:04:33.407Z,87.90
2023-04-07T00:05:37.431Z,87.87
2023-04-07T00:06:41.565Z,87.83
2023-04-07T00:07:55.913Z,87.81
2023-04-07T00:08:50.030Z,87.77
2023-04-07T00:09:54.145Z,87.74
2023-04-07T00:10:58.416Z,87.77
2023-04-07T00:12:02.477Z,87.83
2023-04-07T00:13:06.757Z,87.84
2023-04-07T00:14:10.989Z,87.92
2023-04-07T00:15:15.201Z,88.10
2023-04-07T00:16:19.476Z,88.12
2023-04-07T00:17:23.427Z,88.19
2023-04-07T00:18:27.724Z,88.25
2023-04-07T00:19:31.973Z,88.30
2023-04-07T00:20:36.046Z,88.36
2023-04-07T00:21:40.353Z,88.43
2023-04-07T00:22:44.537Z,88.45
2023-04-07T00:23:48.756Z,88.54
2023-04-07T00:24:52.866Z,88.65
2023-04-07T00:25:57.038Z,88.75
2023-04-07T00:27:01.267Z,88.83
2023-04-07T00:28:05.488Z,88.94
2023-04-07T00:29:09.654Z,89.05
2023-04-07T00:30:14.028Z,89.15
2023-04-07T00:31:18.428Z,89.28
2023-04-07T00:32:25.585Z,89.35
2023-04-07T00:33:28.825Z,89.43
2023-04-07T00:34:33.024Z,89.52
2023-04-07T00:35:37.278Z,89.58
2023-04-07T00:36:41.415Z,89.60
2023-04-07T00:37:45.639Z,89.68
2023-04-07T00:38:49.860Z,89.72
2023-04-07T00:39:54.057Z,89.79
2023-04-07T00:40:58.317Z,89.86
2023-04-07T00:42:02.460Z,89.95
2023-04-07T00:43:06.613Z,89.99
2023-04-07T00:44:10.851Z,90.05
2023-04-07T00:45:14.993Z,90.09
2023-04-07T00:46:19.234Z,90.19
2023-04-07T00:47:23.459Z,90.25
2023-04-07T00:48:33.612Z,90.32
2023-04-07T00:49:36.426Z,90.43
2023-04-07T00:50:40.544Z,90.53
2023-04-07T00:51:44.806Z,90.56
2023-04-07T00:52:49.019Z,90.63
2023-04-07T00:53:53.680Z,90.67
2023-04-07T00:54:57.397Z,90.71
2023-04-07T00:56:01.597Z,90.74
2023-04-07T00:57:05.831Z,90.78
2023-04-07T00:58:10.039Z,90.84
2023-04-07T00:59:20.272Z,90.79
2023-04-07T01:00:23.003Z,90.82
2023-04-07T01:01:27.399Z,90.83
2023-04-07T01:02:31.666Z,90.84
2023-04-07T01:03:35.924Z,90.88
2023-04-07T01:04:40.178Z,90.90
2023-04-07T01:05:44.126Z,90.95
2023-04-07T01:06:48.319Z,90.99
2023-04-07T01:07:52.561Z,91.02
2023-04-07T01:08:56.895Z,91.07
2023-04-07T01:10:01.181Z,91.11
2023-04-07T01:11:05.333Z,91.14
2023-04-07T01:12:09.458Z,91.18
2023-04-07T01:13:13.690Z,91.22
2023-04-07T01:14:17.834Z,91.27
2023-04-07T01:15:22.011Z,91.31
2023-04-07T01:16:26.353Z,91.37
2023-04-07T01:17:30.555Z,91.40
2023-04-07T01:18:37.684Z,91.46
2023-04-07T01:19:40.971Z,91.54
2023-04-07T01:20:45.182Z,91.55
2023-04-07T01:21:49.273Z,91.58
2023-04-07T01:22:53.527Z,91.62
2023-04-07T01:23:57.688Z,91.68
2023-04-07T01:25:01.773Z,91.71
2023-04-07T01:26:05.927Z,91.73
2023-04-07T01:27:10.136Z,91.72
2023-04-07T01:28:14.468Z,91.77
2023-04-07T01:29:18.705Z,91.78
2023-04-07T01:30:22.938Z,91.81
2023-04-07T01:31:27.009Z,91.83
2023-04-07T01:32:31.072Z,91.85
2023-04-07T01:33:36.580Z,92.06
2023-04-07T01:34:39.451Z,91.98
2023-04-07T01:35:43.690Z,92.09
2023-04-07T01:36:47.937Z,92.08
2023-04-07T01:37:52.175Z,92.10
2023-04-07T01:38:56.337Z,92.13
2023-04-07T01:40:00.582Z,92.16
2023-04-07T01:41:04.828Z,92.18
2023-04-07T01:42:09.820Z,92.19
2023-04-07T01:43:13.613Z,92.18
2023-04-07T01:44:17.640Z,92.18
2023-04-07T01:45:21.890Z,92.19
2023-04-07T01:46:26.040Z,92.17
2023-04-07T01:47:30.324Z,92.24
2023-04-07T01:48:34.527Z,92.10
2023-04-07T01:49:38.594Z,92.07
2023-04-07T01:50:42.967Z,92.04
2023-04-07T01:51:46.986Z,92.09
2023-04-07T01:52:51.172Z,92.10
2023-04-07T01:53:55.783Z,92.09
2023-04-07T01:54:59.491Z,92.13
2023-04-07T01:56:03.792Z,92.14
2023-04-07T01:57:07.914Z,92.14
2023-04-07T01:58:12.139Z,92.16
2023-04-07T01:59:16.268Z,92.16
2023-04-07T02:00:20.300Z,92.17
2023-04-07T02:01:24.579Z,92.19
2023-04-07T02:02:28.948Z,92.21
2023-04-07T02:03:32.835Z,92.23
2023-04-07T02:04:36.987Z,92.26
2023-04-07T02:05:47.172Z,92.35
2023-04-07T02:06:49.927Z,92.38
2023-04-07T02:07:54.109Z,92.48
2023-04-07T02:08:58.288Z,92.43
2023-04-07T02:10:02.397Z,92.48
2023-04-07T02:11:06.428Z,92.52
2023-04-07T02:12:10.532Z,92.52
2023-04-07T02:13:15.925Z,92.52
2023-04-07T02:14:19.618Z,92.54
2023-04-07T02:15:23.784Z,92.54
2023-04-07T02:16:27.840Z,92.54
2023-04-07T02:17:31.888Z,92.53
2023-04-07T02:18:36.175Z,92.54
2023-04-07T02:19:40.421Z,92.52
2023-04-07T02:20:44.517Z,92.50
2023-04-07T02:21:48.815Z,92.49
2023-04-07T02:22:52.761Z,92.51
2023-04-07T02:23:57.202Z,92.51
2023-04-07T02:25:01.144Z,92.46
2023-04-07T02:26:05.404Z,92.47
2023-04-07T02:27:09.487Z,92.53
2023-04-07T02:28:13.733Z,92.57
2023-04-07T02:29:17.781Z,92.64
2023-04-07T02:30:21.880Z,92.71
2023-04-07T02:31:26.193Z,92.77
2023-04-07T02:32:30.286Z,92.83
2023-04-07T02:33:34.509Z,92.87
2023-04-07T02:34:38.732Z,92.93
2023-04-07T02:35:42.942Z,92.99
2023-04-07T02:36:47.124Z,93.04
2023-04-07T02:37:51.256Z,93.04
2023-04-07T02:38:55.313Z,93.10
2023-04-07T02:39:59.559Z,93.14
2023-04-07T02:41:03.796Z,93.26
2023-04-07T02:42:07.771Z,93.23
2023-04-07T02:43:11.994Z,93.28
2023-04-07T02:44:16.249Z,93.33
2023-04-07T02:45:20.471Z,93.42
2023-04-07T02:46:24.575Z,93.44
2023-04-07T02:47:28.827Z,93.56
2023-04-07T02:48:32.997Z,93.51
2023-04-07T02:49:37.143Z,93.52
2023-04-07T02:50:41.329Z,93.61
2023-04-07T02:51:45.509Z,93.62
2023-04-07T02:52:49.724Z,93.64
2023-04-07T02:53:54.244Z,93.68
2023-04-07T02:54:58.072Z,93.73
2023-04-07T02:56:02.354Z,93.72
2023-04-07T02:57:06.568Z,93.81
2023-04-07T02:58:10.749Z,93.85
2023-04-07T02:59:14.947Z,93.88
2023-04-07T03:00:19.101Z,93.92
2023-04-07T03:01:23.313Z,93.96
2023-04-07T03:02:27.752Z,94.00
2023-04-07T03:03:31.875Z,93.98
2023-04-07T03:04:35.858Z,94.03
2023-04-07T03:05:40.133Z,93.94
2023-04-07T03:06:44.241Z,93.98
2023-04-07T03:07:48.625Z,93.92
2023-04-07T03:08:52.752Z,93.91
2023-04-07T03:09:56.869Z,93.92
2023-04-07T03:11:01.082Z,93.92
2023-04-07T03:12:05.162Z,93.92
2023-04-07T03:13:09.388Z,93.89
2023-04-07T03:14:13.369Z,93.93
2023-04-07T03:15:18.884Z,93.95
2023-04-07T03:16:21.701Z,93.95
2023-04-07T03:17:25.846Z,93.97
2023-04-07T03:18:30.021Z,94.00
2023-04-07T03:19:34.217Z,94.01
2023-04-07T03:20:38.398Z,94.01
2023-04-07T03:21:42.577Z,94.01
2023-04-07T03:22:46.803Z,94.01
2023-04-07T03:23:50.932Z,94.01
2023-04-07T03:24:55.204Z,94.02
2023-04-07T03:25:59.411Z,93.97
2023-04-07T03:27:03.603Z,93.96
2023-04-07T03:28:07.606Z,93.91
2023-04-07T03:29:11.898Z,93.91
2023-04-07T03:30:16.065Z,93.90
2023-04-07T03:31:20.284Z,93.89
2023-04-07T03:32:24.426Z,93.88
2023-04-07T03:33:28.633Z,93.81
2023-04-07T03:34:32.753Z,93.73
2023-04-07T03:35:40.022Z,93.68
2023-04-07T03:36:43.281Z,93.63
2023-04-07T03:37:47.352Z,93.60
2023-04-07T03:38:51.505Z,93.53
2023-04-07T03:39:55.754Z,93.49
2023-04-07T03:40:59.799Z,93.42
2023-04-07T03:42:04.268Z,93.34
2023-04-07T03:43:08.295Z,93.24
2023-04-07T03:44:12.483Z,93.19
2023-04-07T03:45:30.773Z,93.13
2023-04-07T03:46:33.829Z,93.04
2023-04-07T03:47:51.956Z,92.96
2023-04-07T03:48:54.623Z,92.86
2023-04-07T03:49:58.653Z,92.77
2023-04-07T03:51:02.786Z,92.68
2023-04-07T03:52:06.801Z,92.63
2023-04-07T03:53:10.915Z,92.60
2023-04-07T03:54:15.017Z,92.59
2023-04-07T03:55:19.385Z,92.60
2023-04-07T03:56:23.451Z,92.59
2023-04-07T03:57:27.745Z,92.56
2023-04-07T03:58:31.979Z,92.52
2023-04-07T03:59:51.069Z,92.48
2023-04-07T04:00:54.248Z,92.43
2023-04-07T04:01:58.272Z,92.47
2023-04-07T04:03:02.505Z,92.31
2023-04-07T04:04:06.614Z,92.25
2023-04-07T04:05:10.582Z,92.24
2023-04-07T04:06:14.700Z,92.14
2023-04-07T04:07:18.796Z,92.12
2023-04-07T04:08:22.899Z,92.08
2023-04-07T04:09:27.173Z,92.05
2023-04-07T04:10:31.369Z,92.01
2023-04-07T04:11:35.570Z,91.97
2023-04-07T04:12:39.776Z,91.91
2023-04-07T04:13:43.765Z,91.87
2023-04-07T04:14:48.097Z,91.83
2023-04-07T04:15:52.283Z,91.80
2023-04-07T04:16:56.461Z,91.75
2023-04-07T04:18:01.555Z,91.71
2023-04-07T04:19:05.348Z,91.72
2023-04-07T04:20:09.384Z,91.72
2023-04-07T04:21:13.679Z,91.69
2023-04-07T04:22:20.933Z,91.67
2023-04-07T04:23:24.227Z,91.66
2023-04-07T04:24:28.429Z,91.66
2023-04-07T04:25:32.631Z,91.63
2023-04-07T04:26:36.735Z,91.58
2023-04-07T04:27:40.971Z,91.54
2023-04-07T04:28:45.108Z,91.52
2023-04-07T04:29:49.089Z,91.57
2023-04-07T04:30:53.204Z,91.49
2023-04-07T04:31:57.656Z,91.45
2023-04-07T04:33:01.871Z,91.40
2023-04-07T04:34:06.069Z,91.36
2023-04-07T04:35:10.107Z,91.31
2023-04-07T04:36:14.391Z,91.22
2023-04-07T04:37:18.647Z,91.25
2023-04-07T04:38:22.633Z,91.22
2023-04-07T04:39:26.917Z,91.21
2023-04-07T04:40:31.123Z,91.24
2023-04-07T04:41:35.412Z,91.23
2023-04-07T04:42:39.574Z,91.27
2023-04-07T04:43:43.675Z,91.34
2023-04-07T04:44:48.110Z,91.46
2023-04-07T04:45:52.188Z,91.52
2023-04-07T04:46:56.367Z,91.61
2023-04-07T04:48:00.440Z,91.72
2023-04-07T04:49:04.610Z,91.83
2023-04-07T04:50:08.860Z,91.93
2023-04-07T04:51:12.869Z,92.02
2023-04-07T04:52:17.124Z,92.10
2023-04-07T04:53:21.154Z,92.19
2023-04-07T04:54:25.432Z,92.27
2023-04-07T04:55:29.619Z,92.36
2023-04-07T04:56:33.597Z,92.44
2023-04-07T04:57:38.009Z,92.55
2023-04-07T04:58:42.231Z,92.66
2023-04-07T04:59:46.254Z,92.76
2023-04-07T05:00:50.767Z,92.89
2023-04-07T05:01:54.616Z,93.00
2023-04-07T05:02:58.991Z,93.09
2023-04-07T05:04:03.201Z,93.19
2023-04-07T05:05:07.177Z,93.29
2023-04-07T05:06:11.332Z,93.38
2023-04-07T05:07:15.580Z,93.48
2023-04-07T05:08:19.757Z,93.56
2023-04-07T05:09:23.861Z,93.58
2023-04-07T05:10:28.069Z,93.66
2023-04-07T05:11:32.409Z,93.69
2023-04-07T05:12:36.425Z,93.68
2023-04-07T05:13:40.637Z,93.69
2023-04-07T05:14:44.832Z,93.69
2023-04-07T05:15:48.965Z,93.69
2023-04-07T05:16:53.050Z,93.74
2023-04-07T05:17:57.073Z,93.75
2023-04-07T05:19:01.300Z,93.76
2023-04-07T05:20:05.316Z,93.76
2023-04-07T05:21:09.486Z,93.77
2023-04-07T05:22:13.858Z,93.76
2023-04-07T05:23:17.921Z,93.73
2023-04-07T05:24:22.158Z,93.73
2023-04-07T05:25:26.594Z,93.69
2023-04-07T05:26:30.648Z,93.66
2023-04-07T05:27:34.715Z,93.63
2023-04-07T05:28:38.854Z,93.62
2023-04-07T05:29:42.965Z,93.59
2023-04-07T05:30:47.197Z,93.60
2023-04-07T05:31:51.582Z,93.63
2023-04-07T05:32:55.634Z,93.65
2023-04-07T05:33:59.772Z,93.68
2023-04-07T05:35:03.931Z,93.71
2023-04-07T05:36:08.167Z,93.74
2023-04-07T05:37:12.376Z,93.77
2023-04-07T05:38:16.585Z,93.80
2023-04-07T05:39:20.713Z,93.83
2023-04-07T05:40:24.989Z,93.86
2023-04-07T05:41:29.048Z,93.89
2023-04-07T05:42:33.234Z,93.94
2023-04-07T05:43:37.521Z,94.00
2023-04-07T05:44:41.701Z,94.06
2023-04-07T05:45:45.939Z,94.14
2023-04-07T05:46:50.132Z,94.23
2023-04-07T05:47:54.157Z,94.40
2023-04-07T05:49:00.793Z,94.58
2023-04-07T05:50:02.517Z,94.78
2023-04-07T05:51:06.772Z,94.93
2023-04-07T05:52:10.912Z,95.15
2023-04-07T05:53:18.145Z,95.30
2023-04-07T05:54:21.374Z,95.42
2023-04-07T05:55:25.571Z,95.49
2023-04-07T05:56:29.822Z,95.57
2023-04-07T05:57:34.131Z,95.63
2023-04-07T05:58:38.115Z,95.65
2023-04-07T05:59:42.413Z,95.70
2023-04-07T06:00:46.407Z,95.74
2023-04-07T06:01:50.712Z,95.75
2023-04-07T06:02:55.051Z,95.77
2023-04-07T06:03:59.195Z,95.80
2023-04-07T06:05:03.429Z,95.81
2023-04-07T06:06:07.593Z,95.85
2023-04-07T06:07:11.811Z,95.92
2023-04-07T06:08:16.123Z,96.02
2023-04-07T06:09:20.254Z,96.03
2023-04-07T06:10:24.531Z,96.09
2023-04-07T06:11:28.756Z,96.13
2023-04-07T06:12:32.864Z,96.19
2023-04-07T06:13:40.060Z,96.22
2023-04-07T06:14:43.480Z,96.28
2023-04-07T06:15:47.652Z,96.34
2023-04-07T06:16:51.872Z,96.36
2023-04-07T06:17:56.082Z,96.39
2023-04-07T06:19:00.277Z,96.42
2023-04-07T06:20:04.520Z,96.45
2023-04-07T06:21:11.695Z,96.49
2023-04-07T06:22:14.940Z,96.54
2023-04-07T06:23:19.170Z,96.58
2023-04-07T06:24:23.512Z,96.61
2023-04-07T06:25:27.669Z,96.67
2023-04-07T06:26:31.788Z,96.72
2023-04-07T06:27:36.085Z,96.83
2023-04-07T06:28:40.337Z,96.92
2023-04-07T06:29:45.380Z,96.98
2023-04-07T06:30:49.280Z,97.12
2023-04-07T06:31:53.510Z,97.21
2023-04-07T06:32:57.685Z,97.27
2023-04-07T06:34:01.895Z,97.34
2023-04-07T06:35:06.134Z,97.39
2023-04-07T06:36:10.217Z,97.49
2023-04-07T06:37:14.567Z,97.55
2023-04-07T06:38:18.621Z,97.61
2023-04-07T06:39:22.874Z,97.64
2023-04-07T06:40:27.169Z,97.67
2023-04-07T06:41:31.382Z,97.68
2023-04-07T06:42:36.513Z,97.77
2023-04-07T06:43:40.258Z,97.82
2023-04-07T06:44:44.571Z,97.93
2023-04-07T06:45:48.893Z,97.95
2023-04-07T06:46:52.819Z,98.03
2023-04-07T06:47:57.466Z,98.09
2023-04-07T06:49:01.557Z,98.14
2023-04-07T06:50:05.847Z,98.17
2023-04-07T06:51:10.067Z,98.22
2023-04-07T06:52:14.216Z,98.27
2023-04-07T06:53:18.503Z,98.34
2023-04-07T06:54:22.606Z,98.40
2023-04-07T06:55:26.904Z,98.46
2023-04-07T06:56:31.148Z,98.52
2023-04-07T06:57:35.351Z,98.58
2023-04-07T06:58:39.402Z,98.65
2023-04-07T06:59:43.600Z,98.71
2023-04-07T07:00:47.795Z,98.75
2023-04-07T07:01:52.221Z,98.77
2023-04-07T07:03:02.484Z,98.79
2023-04-07T07:04:05.097Z,98.86
2023-04-07T07:05:09.339Z,98.87
2023-04-07T07:06:13.517Z,98.80
2023-04-07T07:07:17.576Z,98.72
2023-04-07T07:08:21.926Z,98.69
2023-04-07T07:09:25.974Z,98.54
2023-04-07T07:10:30.308Z,98.44
2023-04-07T07:11:34.434Z,98.31
2023-04-07T07:12:38.653Z,98.27
2023-04-07T07:13:42.902Z,98.18
2023-04-07T07:14:47.172Z,98.03
2023-04-07T07:15:51.485Z,97.83
2023-04-07T07:16:55.429Z,97.73
2023-04-07T07:17:59.733Z,97.65
2023-04-07T07:19:03.967Z,97.37
2023-04-07T07:20:08.219Z,97.20
2023-04-07T07:21:12.310Z,97.08
2023-04-07T07:22:16.501Z,96.99
2023-04-07T07:23:20.794Z,96.94
2023-04-07T07:24:28.073Z,96.75
2023-04-07T07:25:31.362Z,96.76
2023-04-07T07:26:35.357Z,96.66
2023-04-07T07:27:39.654Z,96.50
2023-04-07T07:28:43.884Z,96.37
2023-04-07T07:29:48.113Z,96.24
2023-04-07T07:30:52.342Z,96.01
2023-04-07T07:31:56.589Z,95.67
2023-04-07T07:33:00.812Z,95.47
2023-04-07T07:34:05.019Z,95.08
2023-04-07T07:35:09.289Z,94.89
2023-04-07T07:36:13.479Z,94.83
2023-04-07T07:37:17.727Z,94.74
2023-04-07T07:38:21.974Z,94.74
2023-04-07T07:39:26.152Z,94.81
2023-04-07T07:40:30.422Z,94.83
2023-04-07T07:41:34.745Z,94.78
2023-04-07T07:42:38.919Z,94.62
2023-04-07T07:43:43.108Z,94.68
2023-04-07T07:44:48.255Z,94.55
2023-04-07T07:45:52.044Z,94.30
2023-04-07T07:46:56.401Z,94.16
2023-04-07T07:48:00.809Z,94.07
2023-04-07T07:49:04.825Z,93.83
2023-04-07T07:50:08.950Z,93.53
2023-04-07T07:51:13.338Z,93.33
2023-04-07T07:52:17.492Z,93.30
2023-04-07T07:53:21.757Z,92.97
2023-04-07T07:54:25.981Z,92.52
2023-04-07T07:55:30.236Z,92.00
2023-04-07T07:56:34.322Z,91.64
2023-04-07T07:57:38.555Z,91.44
2023-04-07T07:58:42.843Z,91.24
2023-04-07T07:59:47.100Z,91.12
2023-04-07T08:00:51.251Z,90.93
2023-04-07T08:01:55.448Z,90.74
2023-04-07T08:02:59.805Z,90.52
2023-04-07T08:04:04.005Z,90.21
2023-04-07T08:05:08.184Z,90.29
2023-04-07T08:06:12.313Z,90.24
2023-04-07T08:07:16.456Z,90.39
2023-04-07T08:08:20.882Z,90.59
2023-04-07T08:09:25.017Z,90.43
2023-04-07T08:10:29.197Z,90.01
2023-04-07T08:11:33.440Z,89.69
2023-04-07T08:12:37.803Z,89.27
2023-04-07T08:13:41.888Z,89.02
2023-04-07T08:14:46.187Z,88.63
2023-04-07T08:15:50.491Z,88.69
2023-04-07T08:16:54.609Z,88.61
2023-04-07T08:17:58.882Z,88.58
2023-04-07T08:19:03.100Z,88.35
2023-04-07T08:20:21.316Z,88.01
2023-04-07T08:21:24.441Z,88.05
2023-04-07T08:22:31.572Z,88.14
2023-04-07T08:23:34.906Z,88.24
2023-04-07T08:24:39.102Z,88.21
2023-04-07T08:25:43.360Z,87.87
2023-04-07T08:26:47.611Z,87.50
2023-04-07T08:27:51.800Z,86.83
2023-04-07T08:28:56.072Z,86.49
2023-04-07T08:30:00.282Z,85.76
2023-04-07T08:31:04.492Z,85.35
2023-04-07T08:32:08.697Z,84.94
2023-04-07T08:33:12.905Z,84.44
2023-04-07T08:34:17.127Z,84.15
2023-04-07T08:35:21.270Z,84.04
2023-04-07T08:36:25.529Z,84.12
2023-04-07T08:37:29.792Z,84.02
2023-04-07T08:38:34.017Z,84.24
2023-04-07T08:39:38.260Z,84.37
2023-04-07T08:40:42.485Z,84.56
2023-04-07T08:41:46.716Z,84.40
2023-04-07T08:42:51.005Z,84.53
2023-04-07T08:43:55.303Z,84.73
2023-04-07T08:45:00.919Z,84.63
2023-04-07T08:46:03.726Z,84.55
2023-04-07T08:47:08.191Z,84.75
2023-04-07T08:48:12.334Z,85.07
2023-04-07T08:49:16.600Z,85.35
2023-04-07T08:50:20.786Z,85.33
2023-04-07T08:51:25.215Z,85.22
2023-04-07T08:52:29.327Z,85.14
2023-04-07T08:53:33.626Z,84.86
2023-04-07T08:54:37.886Z,84.74
2023-04-07T08:55:42.074Z,84.77
2023-04-07T08:56:46.239Z,84.78
2023-04-07T08:57:50.524Z,84.77
2023-04-07T08:58:54.690Z,84.81
2023-04-07T08:59:59.065Z,84.60
2023-04-07T09:01:03.227Z,84.37
2023-04-07T09:02:07.609Z,84.05
2023-04-07T09:03:12.068Z,83.94
2023-04-07T09:04:16.064Z,83.84
2023-04-07T09:05:20.279Z,83.86
2023-04-07T09:06:24.540Z,83.94
2023-04-07T09:07:28.753Z,84.04
2023-04-07T09:08:38.992Z,84.22
2023-04-07T09:09:41.664Z,84.15
2023-04-07T09:10:45.992Z,84.23
2023-04-07T09:11:50.141Z,84.23
2023-04-07T09:12:54.420Z,84.15
2023-04-07T09:13:58.602Z,84.16
2023-04-07T09:15:02.897Z,83.99
2023-04-07T09:16:07.084Z,83.75
2023-04-07T09:17:11.339Z,83.64
2023-04-07T09:18:15.562Z,83.47
2023-04-07T09:19:19.733Z,83.37
2023-04-07T09:20:24.042Z,83.38
2023-04-07T09:21:28.201Z,83.35
2023-04-07T09:22:32.436Z,83.18
2023-04-07T09:23:36.708Z,83.13
2023-04-07T09:24:55.011Z,83.25
2023-04-07T09:25:58.074Z,83.55
2023-04-07T09:27:02.307Z,83.52
2023-04-07T09:28:06.490Z,83.53
2023-04-07T09:29:10.782Z,83.64
2023-04-07T09:30:15.073Z,83.63
2023-04-07T09:31:19.294Z,83.41
2023-04-07T09:32:23.557Z,83.25
2023-04-07T09:33:27.769Z,82.90
2023-04-07T09:34:32.014Z,82.88
2023-04-07T09:35:36.232Z,83.00
2023-04-07T09:36:40.569Z,82.81
2023-04-07T09:37:44.749Z,82.80
2023-04-07T09:38:51.949Z,82.58
2023-04-07T09:39:55.238Z,82.68
2023-04-07T09:40:59.502Z,82.78
2023-04-07T09:42:03.637Z,82.73
2023-04-07T09:43:07.869Z,82.72
2023-04-07T09:44:12.132Z,82.83
2023-04-07T09:45:27.231Z,82.72
2023-04-07T09:46:20.665Z,82.19
2023-04-07T09:47:24.779Z,81.99
2023-04-07T09:48:29.050Z,81.98
2023-04-07T09:49:33.326Z,81.97
2023-04-07T09:50:37.539Z,82.05
2023-04-07T09:51:41.814Z,82.33
2023-04-07T09:52:46.091Z,82.65
2023-04-07T09:53:50.606Z,82.92
2023-04-07T09:54:54.460Z,83.11
2023-04-07T09:55:58.736Z,83.30
2023-04-07T09:57:02.982Z,83.44
2023-04-07T09:58:07.155Z,83.66
2023-04-07T09:59:11.458Z,84.00
2023-04-07T10:00:15.654Z,84.32
2023-04-07T10:01:19.890Z,84.64
2023-04-07T10:02:24.143Z,84.88
2023-04-07T10:03:28.396Z,85.21
2023-04-07T10:04:32.593Z,85.37
2023-04-07T10:05:36.835Z,85.63
2023-04-07T10:06:42.032Z,85.84
2023-04-07T10:07:45.908Z,85.95
2023-04-07T10:08:50.312Z,86.19
2023-04-07T10:09:54.400Z,86.49
2023-04-07T10:10:58.735Z,86.69
2023-04-07T10:12:02.939Z,86.87
2023-04-07T10:13:07.132Z,86.98
2023-04-07T10:14:11.299Z,87.07
2023-04-07T10:15:15.493Z,87.13
2023-04-07T10:16:19.766Z,87.28
2023-04-07T10:17:23.952Z,87.32
2023-04-07T10:18:28.300Z,87.46
2023-04-07T10:19:32.484Z,87.59
2023-04-07T10:20:36.713Z,87.77
2023-04-07T10:21:40.968Z,87.94
2023-04-07T10:22:45.157Z,88.13
2023-04-07T10:23:49.930Z,88.41
2023-04-07T10:24:56.672Z,88.84
2023-04-07T10:26:00.021Z,89.06
2023-04-07T10:27:04.281Z,89.19
2023-04-07T10:28:08.568Z,89.33
2023-04-07T10:29:12.819Z,89.46
2023-04-07T10:30:17.046Z,89.69
2023-04-07T10:31:21.327Z,89.88
2023-04-07T10:32:25.596Z,90.24
2023-04-07T10:33:29.744Z,90.50
2023-04-07T10:34:33.848Z,90.68
2023-04-07T10:35:38.220Z,90.80
2023-04-07T10:36:42.439Z,90.95
2023-04-07T10:37:46.716Z,91.13
2023-04-07T10:38:50.951Z,91.27
2023-04-07T10:39:55.136Z,91.43
2023-04-07T10:40:59.416Z,91.55
2023-04-07T10:42:03.676Z,91.67
2023-04-07T10:43:07.900Z,91.80
2023-04-07T10:44:26.207Z,91.92
2023-04-07T10:45:29.343Z,92.13
2023-04-07T10:46:33.608Z,92.32
2023-04-07T10:47:37.772Z,92.56
2023-04-07T10:48:42.097Z,92.74
2023-04-07T10:49:46.325Z,92.91
2023-04-07T10:50:50.471Z,93.10
2023-04-07T10:51:54.687Z,93.07
2023-04-07T10:52:58.908Z,93.08
2023-04-07T10:54:03.143Z,92.94
2023-04-07T10:55:07.370Z,92.84
2023-04-07T10:56:11.497Z,92.84
2023-04-07T10:57:15.886Z,92.79
2023-04-07T10:58:20.052Z,92.75
2023-04-07T10:59:24.336Z,92.70
2023-04-07T11:00:28.553Z,92.63
2023-04-07T11:01:32.889Z,92.58
2023-04-07T11:02:37.237Z,92.49
2023-04-07T11:03:41.332Z,92.49
2023-04-07T11:04:45.639Z,92.57
2023-04-07T11:05:49.741Z,92.63
2023-04-07T11:06:54.008Z,92.68
2023-04-07T11:07:58.202Z,92.71
2023-04-07T11:09:02.382Z,92.77
2023-04-07T11:10:06.678Z,92.80
2023-04-07T11:11:10.912Z,92.77
2023-04-07T11:12:15.102Z,92.74
2023-04-07T11:13:19.380Z,92.74
2023-04-07T11:14:23.657Z,92.75
2023-04-07T11:15:27.898Z,92.77
2023-04-07T11:16:32.249Z,92.85
2023-04-07T11:17:36.446Z,92.94
2023-04-07T11:18:40.602Z,93.09
2023-04-07T11:19:44.875Z,93.22
2023-04-07T11:20:49.150Z,93.36
2023-04-07T11:21:53.373Z,93.44
2023-04-07T11:22:57.597Z,93.55
2023-04-07T11:24:01.886Z,93.75
2023-04-07T11:25:06.145Z,93.92
2023-04-07T11:26:10.320Z,94.08
2023-04-07T11:27:14.576Z,94.16
2023-04-07T11:28:18.815Z,94.29
2023-04-07T11:29:23.085Z,94.42
2023-04-07T11:30:27.250Z,94.54
2023-04-07T11:31:31.746Z,94.80
2023-04-07T11:32:35.775Z,95.03
2023-04-07T11:33:39.989Z,95.21
2023-04-07T11:34:44.251Z,95.36
2023-04-07T11:35:48.445Z,95.53
2023-04-07T11:36:52.731Z,95.75
2023-04-07T11:37:57.075Z,95.97
2023-04-07T11:39:01.298Z,96.18
2023-04-07T11:40:05.493Z,96.36
2023-04-07T11:41:09.762Z,96.59
2023-04-07T11:42:14.024Z,96.80
2023-04-07T11:43:18.214Z,96.97
2023-04-07T11:44:22.495Z,97.14
2023-04-07T11:45:26.754Z,97.34
2023-04-07T11:46:31.010Z,97.51
2023-04-07T11:47:35.250Z,97.69
2023-04-07T11:48:39.475Z,97.86
2023-04-07T11:49:43.699Z,98.04
2023-04-07T11:50:47.955Z,98.22
2023-04-07T11:51:52.155Z,98.32
2023-04-07T11:52:56.411Z,98.47
2023-04-07T11:54:00.579Z,98.53
2023-04-07T11:55:04.824Z,98.56
2023-04-07T11:56:08.988Z,98.75
2023-04-07T11:57:13.328Z,98.85
2023-04-07T11:58:17.501Z,98.95
2023-04-07T11:59:21.638Z,99.09
2023-04-07T12:00:25.923Z,99.21
2023-04-07T12:01:30.181Z,99.31
2023-04-07T12:02:34.636Z,99.41
2023-04-07T12:03:38.771Z,99.54
2023-04-07T12:04:42.829Z,99.64
2023-04-07T12:05:53.168Z,99.60
2023-04-07T12:06:55.929Z,99.58
2023-04-07T12:08:00.221Z,99.67
2023-04-07T12:09:04.514Z,99.76
2023-04-07T12:10:08.659Z,99.83
2023-04-07T12:11:12.960Z,99.84
2023-04-07T12:12:17.240Z,99.91
2023-04-07T12:13:21.376Z,99.93
2023-04-07T12:14:25.743Z,99.96
2023-04-07T12:15:29.972Z,100.00
2023-04-07T12:16:34.170Z,100.00
2023-04-07T12:17:38.395Z,100.00
2023-04-07T12:18:42.646Z,100.00
2023-04-07T12:19:46.890Z,100.00
2023-04-07T12:20:51.047Z,100.00
2023-04-07T12:21:55.289Z,99.94
2023-04-07T12:23:00.617Z,99.87
2023-04-07T12:24:04.403Z,99.84
2023-04-07T12:25:08.755Z,99.86
2023-04-07T12:26:13.013Z,99.88
2023-04-07T12:27:17.081Z,99.74
2023-04-07T12:28:21.375Z,99.83
2023-04-07T12:29:25.632Z,99.79
2023-04-07T12:30:29.894Z,99.74
2023-04-07T12:31:34.179Z,99.66
2023-04-07T12:32:38.510Z,99.64
2023-04-07T12:33:42.517Z,99.53
2023-04-07T12:34:46.840Z,99.47
2023-04-07T12:35:54.139Z,99.50
2023-04-07T12:36:57.380Z,99.48
2023-04-07T12:38:01.667Z,99.49
2023-04-07T12:39:05.881Z,99.42
2023-04-07T12:40:10.140Z,99.30
2023-04-07T12:41:14.382Z,99.09
2023-04-07T12:42:21.589Z,99.01
2023-04-07T12:43:24.904Z,98.95
2023-04-07T12:44:29.100Z,98.86
2023-04-07T12:45:33.353Z,98.79
2023-04-07T12:46:37.556Z,98.75
2023-04-07T12:47:41.882Z,98.67
2023-04-07T12:48:46.030Z,98.54
2023-04-07T12:49:50.511Z,98.44
2023-04-07T12:50:54.503Z,98.26
2023-04-07T12:51:58.676Z,98.22
2023-04-07T12:53:02.996Z,98.03
2023-04-07T12:54:07.218Z,98.02
2023-04-07T12:55:11.470Z,98.05
2023-04-07T12:56:15.729Z,98.05
2023-04-07T12:57:19.959Z,98.02
2023-04-07T12:58:24.177Z,97.98
2023-04-07T12:59:28.378Z,97.96
2023-04-07T13:00:32.561Z,97.92
2023-04-07T13:01:36.780Z,97.79
2023-04-07T13:02:41.096Z,97.75
2023-04-07T13:03:45.408Z,97.67
2023-04-07T13:04:49.438Z,97.67
2023-04-07T13:05:53.736Z,97.80
2023-04-07T13:06:57.992Z,97.81
2023-04-07T13:08:02.177Z,97.81
2023-04-07T13:09:06.414Z,97.86
2023-04-07T13:10:10.731Z,97.86
2023-04-07T13:11:14.865Z,97.98
2023-04-07T13:12:19.167Z,98.04
2023-04-07T13:13:23.461Z,98.18
2023-04-07T13:14:27.696Z,98.31
2023-04-07T13:15:31.946Z,98.43
2023-04-07T13:16:36.212Z,98.56
2023-04-07T13:17:40.460Z,98.63
2023-04-07T13:18:44.626Z,98.73
2023-04-07T13:19:48.870Z,98.81
2023-04-07T13:21:14.354Z,98.93
2023-04-07T13:21:57.226Z,99.01
2023-04-07T13:23:07.829Z,99.03
2023-04-07T13:24:05.754Z,99.08
2023-04-07T13:25:09.998Z,99.03
2023-04-07T13:26:14.131Z,99.22
2023-04-07T13:27:21.348Z,99.29
2023-04-07T13:28:24.668Z,99.34
2023-04-07T13:29:28.912Z,99.45
2023-04-07T13:30:33.004Z,99.62
2023-04-07T13:31:37.313Z,99.70
2023-04-07T13:32:41.462Z,99.72
2023-04-07T13:33:45.742Z,99.82
2023-04-07T13:34:49.902Z,99.91
2023-04-07T13:35:54.186Z,99.98
2023-04-07T13:37:04.324Z,100.00
2023-04-07T13:38:07.168Z,100.00
2023-04-07T13:39:11.338Z,100.00
2023-04-07T13:40:15.558Z,100.00
2023-04-07T13:41:19.811Z,100.00
2023-04-07T13:42:23.973Z,100.00
2023-04-07T13:43:28.208Z,100.00
2023-04-07T13:44:32.606Z,100.00
2023-04-07T13:45:36.686Z,100.00
2023-04-07T13:46:41.023Z,100.00
2023-04-07T13:47:45.146Z,100.00
2023-04-07T13:48:49.355Z,100.00